createdAt,value
2018-12-20T00:00:49.853Z,78.81
2018-12-20T00:03:18.183Z,78.86
2018-12-20T00:05:46.422Z,78.69
2018-12-20T00:08:14.907Z,79.04
2018-12-20T00:10:43.278Z,78.82
2018-12-20T00:13:11.689Z,79.10
2018-12-20T00:15:40.177Z,78.66
2018-12-20T00:18:08.628Z,78.43
2018-12-20T00:20:36.947Z,78.19
2018-12-20T00:23:05.217Z,78.14
2018-12-20T00:25:33.700Z,79.04
2018-12-20T00:28:02.263Z,78.64
2018-12-20T00:30:30.517Z,78.89
2018-12-20T00:32:58.798Z,78.65
2018-12-20T00:35:27.396Z,78.59
2018-12-20T00:37:55.862Z,78.39
2018-12-20T00:40:24.399Z,78.89
2018-12-20T00:42:52.682Z,79.23
2018-12-20T00:45:20.970Z,78.66
2018-12-20T00:47:49.678Z,78.98
2018-12-20T00:50:18.109Z,79.08
2018-12-20T00:52:46.500Z,78.21
2018-12-20T00:55:14.891Z,78.38
2018-12-20T00:57:43.285Z,78.86
2018-12-20T01:00:11.890Z,78.56
2018-12-20T01:02:40.321Z,78.95
2018-12-20T01:05:08.750Z,79.15
2018-12-20T01:07:37.084Z,78.56
2018-12-20T01:10:05.605Z,78.65
2018-12-20T01:12:34.255Z,78.72
2018-12-20T01:15:02.652Z,78.97
2018-12-20T01:17:36.482Z,78.88
2018-12-20T01:20:05.095Z,78.78
2018-12-20T01:22:33.354Z,79.11
2018-12-20T01:25:01.789Z,79.23
2018-12-20T01:27:30.085Z,79.52
2018-12-20T01:29:58.362Z,79.40
2018-12-20T01:32:26.862Z,79.16
2018-12-20T01:34:55.290Z,79.60
2018-12-20T01:37:23.783Z,78.68
2018-12-20T01:39:52.117Z,78.76
2018-12-20T01:42:20.510Z,79.24
2018-12-20T01:44:53.479Z,78.62
2018-12-20T01:47:19.186Z,79.05
2018-12-20T01:49:47.509Z,79.95
2018-12-20T01:52:15.888Z,79.82
2018-12-20T01:54:44.237Z,79.98
2018-12-20T01:57:12.662Z,79.68
2018-12-20T01:59:41.168Z,79.69
2018-12-20T02:02:09.648Z,79.50
2018-12-20T02:04:37.998Z,79.63
2018-12-20T02:07:06.401Z,79.56
2018-12-20T02:09:34.799Z,79.82
2018-12-20T02:12:03.335Z,79.73
2018-12-20T02:14:31.663Z,79.52
2018-12-20T02:17:00.056Z,78.94
2018-12-20T02:19:28.412Z,79.47
2018-12-20T02:24:50.152Z,79.20
2018-12-20T02:27:18.698Z,79.15
2018-12-20T02:29:47.166Z,79.45
2018-12-20T02:32:15.571Z,79.68
2018-12-20T02:34:43.868Z,79.67
2018-12-20T02:37:12.231Z,80.42
2018-12-20T02:39:40.588Z,80.73
2018-12-20T02:42:09.001Z,80.90
2018-12-20T02:44:37.437Z,80.89
2018-12-20T02:47:05.823Z,81.52
2018-12-20T02:49:34.219Z,81.58
2018-12-20T02:52:02.671Z,81.29
2018-12-20T02:54:30.932Z,81.41
2018-12-20T02:56:59.343Z,81.73
2018-12-20T02:59:27.772Z,81.93
2018-12-20T03:01:56.092Z,81.68
2018-12-20T03:04:24.692Z,81.99
2018-12-20T03:06:53.168Z,81.92
2018-12-20T03:09:21.451Z,81.77
2018-12-20T03:11:49.763Z,81.45
2018-12-20T03:14:18.183Z,81.66
2018-12-20T03:16:46.415Z,81.96
2018-12-20T03:19:14.669Z,81.46
2018-12-20T03:21:43.090Z,81.24
2018-12-20T03:24:11.593Z,81.57
2018-12-20T03:26:40.076Z,81.43
2018-12-20T03:29:08.600Z,81.39
2018-12-20T03:31:37.174Z,81.49
2018-12-20T03:34:05.573Z,81.77
2018-12-20T03:36:33.904Z,81.14
2018-12-20T03:39:02.198Z,81.39
2018-12-20T03:41:30.564Z,81.15
2018-12-20T03:43:58.858Z,81.11
2018-12-20T03:46:27.395Z,81.11
2018-12-20T03:48:55.797Z,81.48
2018-12-20T03:51:24.622Z,81.28
2018-12-20T03:53:53.135Z,81.46
2018-12-20T03:56:21.634Z,81.03
2018-12-20T03:58:49.859Z,80.64
2018-12-20T04:01:18.341Z,80.80
2018-12-20T04:03:46.762Z,81.46
2018-12-20T04:06:15.145Z,81.24
2018-12-20T04:08:43.501Z,81.18
2018-12-20T04:11:12.026Z,81.37
2018-12-20T04:13:40.442Z,81.19
2018-12-20T04:16:08.895Z,80.92
2018-12-20T04:18:37.331Z,81.06
2018-12-20T04:21:05.582Z,81.33
2018-12-20T04:23:33.931Z,81.35
2018-12-20T04:26:02.206Z,81.20
2018-12-20T04:28:30.458Z,81.27
2018-12-20T04:30:58.914Z,81.70
2018-12-20T04:33:27.524Z,82.32
2018-12-20T04:35:55.977Z,81.65
2018-12-20T04:38:24.491Z,81.57
2018-12-20T04:40:52.853Z,81.46
2018-12-20T04:43:28.036Z,81.29
2018-12-20T04:45:56.323Z,81.44
2018-12-20T04:48:24.799Z,81.20
2018-12-20T04:50:53.428Z,81.51
2018-12-20T04:53:21.960Z,81.52
2018-12-20T04:55:50.511Z,81.42
2018-12-20T04:58:18.897Z,81.62
2018-12-20T05:00:47.299Z,81.24
2018-12-20T05:03:15.693Z,81.16
2018-12-20T05:05:44.399Z,80.98
2018-12-20T05:08:12.862Z,81.30
2018-12-20T05:10:41.147Z,81.15
2018-12-20T05:13:09.417Z,81.23
2018-12-20T05:15:37.741Z,81.01
2018-12-20T05:18:06.040Z,81.29
2018-12-20T05:20:34.543Z,81.53
2018-12-20T05:23:03.255Z,81.96
2018-12-20T05:25:31.678Z,81.98
2018-12-20T05:28:00.307Z,82.06
2018-12-20T05:30:28.523Z,81.50
2018-12-20T05:32:56.798Z,80.92
2018-12-20T05:35:25.545Z,81.31
2018-12-20T05:37:54.012Z,80.97
2018-12-20T05:40:22.405Z,81.28
2018-12-20T05:42:50.681Z,81.26
2018-12-20T05:45:19.036Z,81.65
2018-12-20T05:47:47.331Z,81.45
2018-12-20T05:50:15.628Z,81.33
2018-12-20T05:52:44.031Z,81.25
2018-12-20T05:55:12.326Z,81.10
2018-12-20T05:57:40.574Z,81.71
2018-12-20T06:00:09.552Z,81.93
2018-12-20T06:02:37.919Z,81.63
2018-12-20T06:05:06.867Z,81.27
2018-12-20T06:07:35.189Z,81.18
2018-12-20T06:10:03.609Z,81.73
2018-12-20T06:12:32.144Z,81.77
2018-12-20T06:15:00.462Z,81.79
2018-12-20T06:17:29.041Z,81.31
2018-12-20T06:19:57.573Z,81.30
2018-12-20T06:22:25.925Z,81.62
2018-12-20T06:24:54.453Z,82.39
2018-12-20T06:27:22.786Z,82.06
2018-12-20T06:29:51.012Z,82.05
2018-12-20T06:32:19.347Z,82.06
2018-12-20T06:34:47.578Z,81.85
2018-12-20T06:37:15.817Z,81.77
2018-12-20T06:39:50.566Z,81.21
2018-12-20T06:42:18.784Z,82.05
2018-12-20T06:44:47.048Z,82.06
2018-12-20T06:47:15.294Z,82.35
2018-12-20T06:49:43.508Z,82.43
2018-12-20T06:52:11.763Z,82.54
2018-12-20T06:54:39.968Z,82.30
2018-12-20T06:57:08.176Z,81.96
2018-12-20T06:59:36.409Z,82.41
2018-12-20T07:02:05.066Z,82.33
2018-12-20T07:04:33.306Z,81.88
2018-12-20T07:07:01.580Z,82.46
2018-12-20T07:09:29.950Z,82.25
2018-12-20T07:11:58.176Z,82.70
2018-12-20T07:14:26.420Z,82.79
2018-12-20T07:16:54.678Z,82.72
2018-12-20T07:19:22.927Z,82.45
2018-12-20T07:21:51.215Z,83.04
2018-12-20T07:24:19.444Z,82.61
2018-12-20T07:26:47.687Z,82.49
2018-12-20T07:29:15.942Z,82.32
2018-12-20T07:31:56.356Z,82.67
2018-12-20T07:34:24.577Z,82.23
2018-12-20T07:36:52.798Z,82.67
2018-12-20T07:39:21.037Z,82.30
2018-12-20T07:41:49.468Z,83.20
2018-12-20T07:44:17.809Z,83.14
2018-12-20T07:46:46.269Z,83.51
2018-12-20T07:49:14.731Z,83.28
2018-12-20T07:51:43.030Z,83.41
2018-12-20T07:54:11.651Z,83.60
2018-12-20T07:56:40.127Z,83.50
2018-12-20T07:59:08.524Z,83.25
2018-12-20T08:01:36.892Z,83.13
2018-12-20T08:04:05.203Z,82.85
2018-12-20T08:06:33.578Z,82.92
2018-12-20T08:09:01.907Z,83.29
2018-12-20T08:11:30.239Z,83.17
2018-12-20T08:13:58.480Z,83.74
2018-12-20T08:16:26.771Z,83.48
2018-12-20T08:18:55.025Z,82.96
2018-12-20T08:21:23.224Z,82.72
2018-12-20T08:23:51.478Z,82.64
2018-12-20T08:26:19.819Z,82.67
2018-12-20T08:28:48.190Z,83.18
2018-12-20T08:31:16.425Z,83.15
2018-12-20T08:33:44.746Z,82.66
2018-12-20T08:36:13.011Z,82.47
2018-12-20T08:38:41.197Z,83.33
2018-12-20T08:41:09.434Z,82.94
2018-12-20T08:43:37.717Z,83.25
2018-12-20T08:46:05.993Z,82.52
2018-12-20T08:48:34.234Z,83.12
2018-12-20T08:51:02.576Z,83.12
2018-12-20T08:53:30.883Z,83.08
2018-12-20T08:55:59.080Z,83.16
2018-12-20T08:58:27.330Z,83.35
2018-12-20T09:00:55.707Z,82.85
2018-12-20T09:03:23.988Z,82.83
2018-12-20T09:05:52.334Z,83.01
2018-12-20T09:08:20.548Z,82.62
2018-12-20T09:10:48.775Z,82.73
2018-12-20T09:13:17.029Z,82.94
2018-12-20T09:15:45.354Z,82.51
2018-12-20T09:18:13.636Z,83.03
2018-12-20T09:20:41.916Z,82.89
2018-12-20T09:23:10.118Z,82.65
2018-12-20T09:25:38.372Z,82.65
2018-12-20T09:28:06.674Z,82.99
2018-12-20T09:30:34.947Z,83.00
2018-12-20T09:33:03.194Z,82.96
2018-12-20T09:35:31.530Z,82.93
2018-12-20T09:38:01.048Z,82.67
2018-12-20T09:40:29.537Z,82.72
2018-12-20T09:42:57.770Z,82.86
2018-12-20T09:45:26.045Z,82.51
2018-12-20T09:47:58.552Z,82.87
2018-12-20T09:50:26.950Z,82.92
2018-12-20T09:52:55.197Z,82.74
2018-12-20T09:55:23.442Z,82.76
2018-12-20T09:57:51.689Z,82.27
2018-12-20T10:00:19.945Z,82.64
2018-12-20T10:02:48.201Z,82.79
2018-12-20T10:05:16.796Z,83.01
2018-12-20T10:07:45.002Z,82.74
2018-12-20T10:10:13.304Z,82.32
2018-12-20T10:12:41.564Z,82.61
2018-12-20T10:15:09.842Z,83.30
2018-12-20T10:17:38.052Z,83.27
2018-12-20T10:20:08.969Z,82.85
2018-12-20T10:22:37.199Z,83.43
2018-12-20T10:25:05.684Z,83.04
2018-12-20T10:27:34.064Z,82.54
2018-12-20T10:30:02.450Z,83.16
2018-12-20T10:32:30.710Z,82.99
2018-12-20T10:34:58.944Z,82.64
2018-12-20T10:37:27.202Z,82.53
2018-12-20T10:39:55.460Z,82.46
2018-12-20T10:42:23.702Z,82.86
2018-12-20T10:44:52.052Z,83.14
2018-12-20T10:47:29.277Z,82.98
2018-12-20T10:49:56.033Z,82.97
2018-12-20T10:52:24.298Z,83.28
2018-12-20T10:54:52.714Z,83.71
2018-12-20T10:57:20.938Z,83.26
2018-12-20T10:59:49.216Z,82.77
2018-12-20T11:02:22.938Z,82.65
2018-12-20T11:04:56.543Z,83.22
2018-12-20T11:07:30.288Z,82.90
2018-12-20T11:10:03.898Z,82.95
2018-12-20T11:12:37.602Z,83.06
2018-12-20T11:15:06.951Z,83.00
2018-12-20T11:17:37.429Z,83.41
2018-12-20T11:20:05.866Z,82.90
2018-12-20T11:22:34.265Z,82.61
2018-12-20T11:25:02.498Z,82.77
2018-12-20T11:27:31.006Z,82.89
2018-12-20T11:29:59.306Z,83.01
2018-12-20T11:32:27.574Z,83.18
2018-12-20T11:34:55.783Z,82.96
2018-12-20T11:37:24.026Z,82.83
2018-12-20T11:39:59.370Z,82.93
2018-12-20T11:42:23.038Z,82.77
2018-12-20T11:44:51.284Z,83.45
2018-12-20T11:47:24.863Z,83.34
2018-12-20T11:49:53.094Z,83.26
2018-12-20T11:52:21.362Z,82.68
2018-12-20T11:54:49.642Z,82.79
2018-12-20T11:57:17.890Z,83.20
2018-12-20T11:59:46.131Z,82.85
2018-12-20T12:02:14.467Z,82.91
2018-12-20T12:04:42.727Z,82.28
2018-12-20T12:07:10.932Z,82.89
2018-12-20T12:09:39.191Z,82.66
2018-12-20T12:12:07.482Z,82.97
2018-12-20T12:14:35.778Z,83.28
2018-12-20T12:17:04.139Z,83.18
2018-12-20T12:19:32.346Z,83.08
2018-12-20T12:22:00.616Z,83.46
2018-12-20T12:24:28.952Z,83.26
2018-12-20T12:27:10.149Z,83.62
2018-12-20T12:29:38.439Z,83.36
2018-12-20T12:36:03.281Z,83.21
2018-12-20T12:38:31.595Z,83.35
2018-12-20T12:40:59.935Z,83.24
2018-12-20T12:43:28.185Z,83.21
2018-12-20T12:47:17.830Z,83.16
2018-12-20T12:49:46.155Z,83.69
2018-12-20T12:52:14.474Z,82.93
2018-12-20T12:54:43.200Z,82.79
2018-12-20T12:57:16.154Z,82.79
2018-12-20T12:59:44.369Z,83.20
2018-12-20T13:02:12.620Z,83.33
2018-12-20T13:04:40.884Z,82.96
2018-12-20T13:07:09.164Z,82.92
2018-12-20T13:09:37.389Z,83.16
2018-12-20T13:12:05.652Z,82.36
2018-12-20T13:14:34.132Z,82.69
2018-12-20T13:17:02.373Z,82.90
2018-12-20T13:19:30.594Z,82.41
2018-12-20T13:21:58.853Z,82.34
2018-12-20T13:24:27.134Z,82.59
2018-12-20T13:26:55.390Z,82.26
2018-12-20T13:29:23.654Z,82.39
2018-12-20T13:31:52.004Z,82.94
2018-12-20T13:34:20.228Z,82.35
2018-12-20T13:36:48.636Z,82.54
2018-12-20T13:42:09.847Z,83.10
2018-12-20T13:44:38.130Z,82.24
2018-12-20T13:47:06.362Z,82.88
2018-12-20T13:49:34.569Z,82.50
2018-12-20T13:52:02.922Z,82.62
2018-12-20T13:54:31.145Z,82.72
2018-12-20T13:56:59.365Z,82.65
2018-12-20T13:59:27.627Z,82.58
2018-12-20T14:01:55.888Z,82.93
2018-12-20T14:04:24.245Z,83.29
2018-12-20T14:06:52.522Z,83.14
2018-12-20T14:09:21.570Z,83.16
2018-12-20T14:11:53.222Z,83.47
2018-12-20T14:14:22.140Z,83.48
2018-12-20T14:16:51.106Z,83.30
2018-12-20T14:19:20.049Z,82.83
2018-12-20T14:21:48.974Z,83.18
2018-12-20T14:24:17.640Z,82.59
2018-12-20T14:26:46.002Z,82.67
2018-12-20T14:29:14.223Z,82.79
2018-12-20T14:31:42.509Z,82.64
2018-12-20T14:34:10.782Z,82.71
2018-12-20T14:36:39.220Z,82.97
2018-12-20T14:39:14.174Z,82.81
2018-12-20T14:41:42.401Z,82.67
2018-12-20T14:44:10.828Z,82.91
2018-12-20T14:46:39.065Z,83.38
2018-12-20T14:49:07.352Z,82.95
2018-12-20T14:54:28.763Z,82.72
2018-12-20T14:56:57.020Z,82.28
2018-12-20T14:59:25.594Z,82.16
2018-12-20T15:01:53.907Z,82.23
2018-12-20T15:04:22.205Z,82.31
2018-12-20T15:06:50.619Z,82.31
2018-12-20T15:09:18.920Z,81.97
2018-12-20T15:11:47.540Z,82.14
2018-12-20T15:14:16.163Z,82.19
2018-12-20T15:16:44.409Z,82.14
2018-12-20T15:19:12.751Z,81.80
2018-12-20T15:21:41.221Z,82.45
2018-12-20T15:24:09.930Z,82.18
2018-12-20T15:26:38.276Z,82.34
2018-12-20T15:29:06.609Z,82.24
2018-12-20T15:31:34.953Z,82.12
2018-12-20T15:34:03.223Z,82.42
2018-12-20T15:36:32.067Z,82.25
2018-12-20T15:39:00.401Z,82.11
2018-12-20T15:41:28.673Z,82.34
2018-12-20T15:43:56.938Z,82.16
2018-12-20T15:46:25.230Z,82.17
2018-12-20T15:48:57.679Z,81.72
2018-12-20T15:51:26.752Z,81.63
2018-12-20T15:53:55.256Z,81.80
2018-12-20T15:56:23.779Z,81.95
2018-12-20T15:58:52.030Z,81.53
2018-12-20T16:01:20.291Z,81.78
2018-12-20T16:03:48.666Z,82.02
2018-12-20T16:06:16.957Z,81.71
2018-12-20T16:08:45.690Z,81.59
2018-12-20T16:11:14.141Z,81.78
2018-12-20T16:13:42.422Z,81.52
2018-12-20T16:16:10.805Z,82.38
2018-12-20T16:18:39.147Z,82.37
2018-12-20T16:21:07.446Z,82.02
2018-12-20T16:23:35.724Z,82.41
2018-12-20T16:26:04.166Z,82.62
2018-12-20T16:28:32.471Z,82.81
2018-12-20T16:31:00.749Z,82.18
2018-12-20T16:33:29.156Z,82.45
2018-12-20T16:35:57.535Z,82.71
2018-12-20T16:38:25.937Z,82.35
2018-12-20T16:40:54.365Z,82.45
2018-12-20T16:43:22.651Z,82.62
2018-12-20T16:48:45.077Z,82.58
2018-12-20T16:51:14.752Z,82.36
2018-12-20T16:53:43.058Z,81.87
2018-12-20T16:56:11.520Z,81.67
2018-12-20T16:58:39.873Z,82.11
2018-12-20T17:01:08.193Z,82.21
2018-12-20T17:06:29.342Z,82.21
2018-12-20T17:11:50.706Z,81.98
2018-12-20T17:14:19.164Z,82.58
2018-12-20T17:16:54.450Z,82.40
2018-12-20T17:19:22.820Z,81.99
2018-12-20T17:24:44.736Z,82.29
2018-12-20T17:27:13.137Z,82.24
2018-12-20T17:29:42.594Z,82.66
2018-12-20T17:32:11.302Z,82.54
2018-12-20T17:34:40.110Z,82.18
2018-12-20T17:37:09.092Z,81.99
2018-12-20T17:39:38.382Z,81.90
2018-12-20T17:42:07.268Z,81.83
2018-12-20T17:44:35.603Z,82.41
2018-12-20T17:47:04.152Z,82.60
2018-12-20T17:49:32.568Z,82.52
2018-12-20T17:52:01.308Z,82.44
2018-12-20T17:54:29.791Z,82.55
2018-12-20T17:56:58.116Z,82.76
2018-12-20T17:59:26.645Z,82.40
2018-12-20T18:01:56.017Z,82.37
2018-12-20T18:04:24.294Z,82.17
2018-12-20T18:06:52.672Z,81.68
2018-12-20T18:09:20.928Z,81.45
2018-12-20T18:11:49.195Z,81.94
2018-12-20T18:14:18.563Z,81.79
2018-12-20T18:16:46.856Z,82.04
2018-12-20T18:19:15.139Z,81.71
2018-12-20T18:21:43.430Z,82.21
2018-12-20T18:24:11.699Z,82.04
2018-12-20T18:26:40.055Z,82.22
2018-12-20T18:29:08.379Z,82.20
2018-12-20T18:31:36.710Z,82.40
2018-12-20T18:34:04.996Z,82.27
2018-12-20T18:36:33.388Z,82.23
2018-12-20T18:39:01.688Z,81.92
2018-12-20T18:41:29.928Z,81.81
2018-12-20T18:43:58.255Z,81.95
2018-12-20T18:46:26.507Z,81.95
2018-12-20T18:48:54.795Z,82.08
2018-12-20T18:51:23.086Z,81.61
2018-12-20T18:53:51.507Z,81.90
2018-12-20T18:56:19.753Z,81.98
2018-12-20T18:58:48.243Z,81.46
2018-12-20T19:01:16.549Z,81.98
2018-12-20T19:03:44.872Z,81.77
2018-12-20T19:06:14.240Z,81.65
2018-12-20T19:08:42.657Z,81.40
2018-12-20T19:11:31.055Z,81.20
2018-12-20T19:13:59.338Z,81.01
2018-12-20T19:16:27.544Z,80.81
2018-12-20T19:18:55.779Z,80.97
2018-12-20T19:21:24.135Z,81.25
2018-12-20T19:23:53.385Z,80.97
2018-12-20T19:26:22.401Z,80.83
2018-12-20T19:28:50.686Z,81.04
2018-12-20T19:31:18.975Z,81.15
2018-12-20T19:33:47.285Z,81.11
2018-12-20T19:36:15.567Z,80.88
2018-12-20T19:38:44.181Z,80.64
2018-12-20T19:41:12.600Z,80.88
2018-12-20T19:43:40.982Z,80.96
2018-12-20T19:46:09.309Z,80.23
2018-12-20T19:48:37.661Z,80.40
2018-12-20T19:51:05.999Z,81.15
2018-12-20T19:53:34.376Z,81.01
2018-12-20T19:56:02.703Z,81.04
2018-12-20T19:58:31.068Z,81.06
2018-12-20T20:00:59.412Z,80.73
2018-12-20T20:03:34.063Z,80.95
2018-12-20T20:06:02.391Z,80.79
2018-12-20T20:08:30.714Z,81.40
2018-12-20T20:10:59.007Z,81.14
2018-12-20T20:16:20.496Z,80.78
2018-12-20T20:21:41.792Z,81.04
2018-12-20T20:24:10.132Z,81.52
2018-12-20T20:29:31.463Z,80.53
2018-12-20T20:31:59.842Z,80.44
2018-12-20T20:34:28.109Z,80.79
2018-12-20T20:36:56.518Z,80.26
2018-12-20T20:39:43.362Z,79.75
2018-12-20T20:42:11.610Z,80.20
2018-12-20T20:44:39.936Z,80.11
2018-12-20T20:47:08.387Z,80.07
2018-12-20T20:49:36.796Z,80.23
2018-12-20T20:52:05.129Z,80.22
2018-12-20T20:54:33.530Z,80.49
2018-12-20T20:57:01.801Z,80.94
2018-12-20T20:59:30.243Z,80.81
2018-12-20T21:01:58.571Z,80.90
2018-12-20T21:04:26.898Z,80.88
2018-12-20T21:06:55.288Z,81.22
2018-12-20T21:12:22.844Z,81.78
2018-12-20T21:14:52.370Z,82.05
2018-12-20T21:17:17.832Z,82.29
2018-12-20T21:19:46.197Z,82.21
2018-12-20T21:22:14.469Z,81.92
2018-12-20T21:24:42.868Z,81.78
2018-12-20T21:27:11.438Z,81.97
2018-12-20T21:29:39.841Z,81.69
2018-12-20T21:32:08.223Z,82.20
2018-12-20T21:34:36.749Z,82.50
2018-12-20T21:37:05.168Z,81.97
2018-12-20T21:39:33.536Z,81.62
2018-12-20T21:42:01.821Z,82.23
2018-12-20T21:44:30.135Z,82.22
2018-12-20T21:46:58.449Z,82.91
2018-12-20T21:49:26.773Z,81.94
2018-12-20T21:51:55.038Z,82.38
2018-12-20T21:54:23.307Z,82.20
2018-12-20T21:59:44.188Z,82.45
2018-12-20T22:05:05.700Z,82.03
2018-12-20T22:07:33.952Z,81.76
2018-12-20T22:10:02.255Z,81.61
2018-12-20T22:12:30.546Z,81.43
2018-12-20T22:14:58.846Z,81.75
2018-12-20T22:17:27.235Z,81.89
2018-12-20T22:19:58.683Z,81.86
2018-12-20T22:22:25.960Z,81.75
2018-12-20T22:24:54.227Z,82.04
2018-12-20T22:27:22.595Z,81.46
2018-12-20T22:29:51.098Z,81.76
2018-12-20T22:32:19.427Z,81.72
2018-12-20T22:34:47.765Z,81.39
2018-12-20T22:37:16.172Z,80.79
2018-12-20T22:39:44.467Z,81.42
2018-12-20T22:42:12.728Z,81.54
2018-12-20T22:44:40.983Z,81.18
2018-12-20T22:47:09.281Z,80.95
2018-12-20T22:49:37.618Z,81.28
2018-12-20T22:52:05.815Z,81.62
2018-12-20T22:54:34.181Z,81.59
2018-12-20T22:57:02.476Z,81.19
2018-12-20T22:59:30.780Z,81.50
2018-12-20T23:01:59.163Z,81.50
2018-12-20T23:04:27.428Z,81.42
2018-12-20T23:06:55.732Z,81.46
2018-12-20T23:09:24.086Z,81.21
2018-12-20T23:11:52.375Z,81.36
2018-12-20T23:14:20.761Z,81.81
2018-12-20T23:16:53.657Z,80.90
2018-12-20T23:19:19.817Z,81.36
2018-12-20T23:21:48.192Z,81.45
2018-12-20T23:24:16.512Z,81.12
2018-12-20T23:26:44.856Z,80.84
2018-12-20T23:29:13.159Z,80.96
2018-12-20T23:31:42.039Z,81.16
2018-12-20T23:34:10.394Z,80.80
2018-12-20T23:36:38.624Z,81.07
2018-12-20T23:39:08.886Z,81.12
2018-12-20T23:41:37.139Z,81.34
2018-12-20T23:44:05.462Z,81.54
2018-12-20T23:46:33.742Z,81.67
2018-12-20T23:49:02.019Z,81.88
2018-12-20T23:51:30.286Z,82.21
2018-12-20T23:53:58.573Z,82.46
2018-12-20T23:56:26.908Z,82.25
2018-12-20T23:58:55.137Z,82.42
